createdAt,value
2023-05-13T00:00:21.952Z,100.00
2023-05-13T00:05:23.712Z,100.00
2023-05-13T00:10:25.226Z,100.00
2023-05-13T00:15:27.427Z,100.00
2023-05-13T00:20:28.985Z,100.00
2023-05-13T00:25:30.626Z,100.00
2023-05-13T00:30:32.454Z,100.00
2023-05-13T00:35:33.981Z,100.00
2023-05-13T00:40:42.373Z,100.00
2023-05-13T00:45:43.896Z,100.00
2023-05-13T00:50:45.626Z,100.00
2023-05-13T00:55:47.305Z,100.00
2023-05-13T01:01:27.124Z,100.00
2023-05-13T01:06:56.915Z,100.00
2023-05-13T01:12:07.563Z,100.00
2023-05-13T01:17:18.126Z,100.00
2023-05-13T01:22:20.046Z,100.00
2023-05-13T01:27:21.679Z,100.00
2023-05-13T01:32:24.100Z,100.00
2023-05-13T01:37:26.123Z,100.00
2023-05-13T01:42:30.044Z,100.00
2023-05-13T01:47:32.260Z,100.00
2023-05-13T01:52:34.141Z,100.00
2023-05-13T01:57:36.175Z,100.00
2023-05-13T02:02:37.869Z,100.00
2023-05-13T02:07:39.481Z,100.00
2023-05-13T02:12:41.293Z,100.00
2023-05-13T02:17:42.983Z,100.00
2023-05-13T02:22:44.545Z,100.00
2023-05-13T02:27:46.061Z,100.00
2023-05-13T02:32:47.776Z,100.00
2023-05-13T02:37:49.476Z,100.00
2023-05-13T02:42:51.457Z,100.00
2023-05-13T02:48:00.063Z,100.00
2023-05-13T02:53:02.692Z,100.00
2023-05-13T02:58:06.305Z,100.00
2023-05-13T03:03:08.570Z,100.00
2023-05-13T03:08:12.861Z,100.00
2023-05-13T03:13:14.456Z,100.00
2023-05-13T03:18:17.200Z,100.00
2023-05-13T03:23:19.008Z,100.00
2023-05-13T03:28:22.770Z,100.00
2023-05-13T03:33:24.398Z,100.00
2023-05-13T03:38:25.921Z,100.00
2023-05-13T03:43:28.319Z,100.00
2023-05-13T03:48:34.512Z,100.00
2023-05-13T03:53:37.453Z,100.00
2023-05-13T03:58:39.228Z,100.00
2023-05-13T04:03:42.845Z,100.00
2023-05-13T04:08:44.414Z,100.00
2023-05-13T04:13:46.104Z,100.00
2023-05-13T04:18:47.730Z,100.00
2023-05-13T04:23:49.258Z,100.00
2023-05-13T04:28:51.172Z,100.00
2023-05-13T04:33:53.183Z,100.00
2023-05-13T04:38:55.496Z,100.00
2023-05-13T04:43:57.907Z,100.00
2023-05-13T04:48:59.578Z,100.00
2023-05-13T04:54:01.701Z,100.00
2023-05-13T04:59:03.952Z,100.00
2023-05-13T05:04:06.020Z,100.00
2023-05-13T05:09:09.677Z,100.00
2023-05-13T05:14:11.322Z,100.00
2023-05-13T05:19:13.028Z,100.00
2023-05-13T05:24:14.976Z,100.00
2023-05-13T05:29:16.710Z,100.00
2023-05-13T05:34:19.340Z,100.00
2023-05-13T05:39:22.131Z,100.00
2023-05-13T05:44:23.871Z,100.00
2023-05-13T05:49:25.676Z,100.00
2023-05-13T05:54:28.042Z,98.61
2023-05-13T05:59:29.828Z,94.79
2023-05-13T06:04:31.603Z,94.37
2023-05-13T06:09:35.764Z,91.00
2023-05-13T06:14:38.104Z,91.97
2023-05-13T06:19:39.626Z,88.55
2023-05-13T06:24:42.984Z,87.68
2023-05-13T06:29:44.621Z,86.64
2023-05-13T06:34:47.441Z,84.75
2023-05-13T06:39:49.161Z,81.85
2023-05-13T06:44:52.026Z,82.61
2023-05-13T06:49:58.412Z,81.24
2023-05-13T06:54:59.995Z,80.91
2023-05-13T07:00:02.355Z,79.46
2023-05-13T07:05:04.137Z,77.01
2023-05-13T07:10:06.031Z,76.73
2023-05-13T07:15:08.482Z,76.53
2023-05-13T07:20:10.352Z,76.36
2023-05-13T07:25:12.505Z,77.44
2023-05-13T07:30:14.393Z,77.47
2023-05-13T07:35:17.162Z,75.93
2023-05-13T07:40:20.177Z,73.64
2023-05-13T07:45:22.375Z,75.40
2023-05-13T07:50:24.290Z,74.95
2023-05-13T07:55:26.015Z,76.15
2023-05-13T08:00:27.540Z,75.53
2023-05-13T08:05:29.069Z,72.83
2023-05-13T08:10:30.768Z,70.78
2023-05-13T08:15:32.368Z,69.96
2023-05-13T08:20:33.965Z,68.86
2023-05-13T08:25:35.521Z,69.73
2023-05-13T08:30:37.031Z,70.01
2023-05-13T08:35:38.691Z,68.83
2023-05-13T08:40:42.379Z,68.24
2023-05-13T08:45:47.991Z,68.58
2023-05-13T08:50:50.128Z,67.46
2023-05-13T08:55:52.326Z,68.84
2023-05-13T09:00:54.446Z,66.68
2023-05-13T09:05:56.426Z,66.56
2023-05-13T09:10:58.122Z,65.58
2023-05-13T09:15:59.720Z,65.92
2023-05-13T09:21:30.419Z,64.68
2023-05-13T09:26:31.975Z,63.51
2023-05-13T09:31:33.847Z,63.29
2023-05-13T09:36:35.429Z,60.19
2023-05-13T09:41:37.059Z,60.04
2023-05-13T09:46:38.917Z,58.50
2023-05-13T09:51:40.451Z,58.81
2023-05-13T09:56:42.217Z,58.65
2023-05-13T10:01:45.485Z,59.21
2023-05-13T10:06:48.930Z,59.57
2023-05-13T10:11:50.731Z,58.11
2023-05-13T10:16:52.907Z,58.03
2023-05-13T10:21:57.388Z,57.46
2023-05-13T10:27:01.599Z,57.63
2023-05-13T10:32:04.667Z,56.61
2023-05-13T10:37:16.615Z,57.14
2023-05-13T10:42:43.430Z,55.98
2023-05-13T10:47:50.122Z,56.82
2023-05-13T10:52:56.854Z,57.75
2023-05-13T10:58:08.503Z,57.85
2023-05-13T11:03:29.358Z,56.99
2023-05-13T11:08:41.498Z,54.94
2023-05-13T11:13:43.150Z,55.94
2023-05-13T11:18:44.853Z,57.13
2023-05-13T11:24:06.592Z,55.85
2023-05-13T11:29:08.083Z,55.92
2023-05-13T11:34:14.777Z,54.01
2023-05-13T11:39:18.739Z,54.89
2023-05-13T11:44:22.784Z,56.04
2023-05-13T11:49:45.064Z,56.36
2023-05-13T11:54:49.456Z,54.26
2023-05-13T11:59:55.418Z,54.93
2023-05-13T12:05:07.459Z,55.50
2023-05-13T12:10:09.442Z,54.31
2023-05-13T12:15:15.654Z,53.76
2023-05-13T12:20:18.976Z,54.45
2023-05-13T12:25:36.774Z,54.20
2023-05-13T12:30:54.480Z,54.65
2023-05-13T12:36:20.191Z,52.43
2023-05-13T12:41:22.891Z,53.01
2023-05-13T12:46:24.773Z,52.61
2023-05-13T12:51:26.611Z,53.15
2023-05-13T12:56:28.222Z,53.56
2023-05-13T13:01:29.857Z,52.95
2023-05-13T13:06:32.374Z,54.47
2023-05-13T13:11:33.939Z,54.36
2023-05-13T13:16:35.487Z,52.43
2023-05-13T13:21:37.156Z,53.14
2023-05-13T13:26:38.730Z,53.84
2023-05-13T13:31:40.308Z,53.93
2023-05-13T13:36:41.964Z,52.01
2023-05-13T13:41:43.501Z,53.20
2023-05-13T13:46:45.202Z,55.19
2023-05-13T13:51:46.725Z,53.54
2023-05-13T13:56:48.337Z,55.67
2023-05-13T14:01:50.119Z,54.96
2023-05-13T14:06:52.230Z,54.21
2023-05-13T14:11:53.800Z,53.14
2023-05-13T14:16:55.353Z,54.03
2023-05-13T14:21:56.903Z,54.10
2023-05-13T14:26:59.131Z,53.84
2023-05-13T14:32:02.829Z,54.06
2023-05-13T14:37:04.578Z,54.58
2023-05-13T14:42:06.414Z,54.88
2023-05-13T14:47:08.357Z,55.55
2023-05-13T14:52:10.102Z,56.64
2023-05-13T14:57:11.801Z,56.39
2023-05-13T15:02:13.955Z,54.80
2023-05-13T15:07:15.650Z,54.52
2023-05-13T15:12:17.197Z,55.86
2023-05-13T15:17:18.897Z,57.72
2023-05-13T15:22:20.478Z,57.58
2023-05-13T15:27:22.115Z,56.40
2023-05-13T15:32:23.644Z,56.80
2023-05-13T15:37:25.176Z,57.70
2023-05-13T15:42:27.599Z,56.28
2023-05-13T15:47:29.225Z,56.12
2023-05-13T15:52:30.801Z,55.58
2023-05-13T15:57:32.465Z,55.03
2023-05-13T16:02:39.785Z,55.14
2023-05-13T16:07:42.441Z,56.21
2023-05-13T16:12:44.077Z,56.30
2023-05-13T16:17:45.649Z,55.53
2023-05-13T16:22:47.244Z,55.21
2023-05-13T16:27:49.178Z,55.96
2023-05-13T16:32:53.444Z,55.94
2023-05-13T16:37:55.061Z,54.91
2023-05-13T16:42:59.295Z,56.31
2023-05-13T16:48:02.665Z,57.51
2023-05-13T16:53:04.323Z,57.79
2023-05-13T16:58:05.889Z,58.97
2023-05-13T17:03:07.848Z,59.86
2023-05-13T17:08:09.882Z,59.38
2023-05-13T17:13:11.679Z,59.43
2023-05-13T17:18:15.880Z,59.42
2023-05-13T17:23:17.463Z,59.66
2023-05-13T17:28:18.978Z,59.11
2023-05-13T17:33:20.545Z,60.05
2023-05-13T17:38:22.177Z,59.93
2023-05-13T17:43:23.680Z,60.29
2023-05-13T17:48:26.678Z,60.64
2023-05-13T17:53:28.507Z,60.78
2023-05-13T17:58:30.031Z,60.21
2023-05-13T18:03:31.576Z,60.66
2023-05-13T18:08:33.136Z,61.64
2023-05-13T18:13:35.968Z,61.95
2023-05-13T18:18:37.680Z,63.38
2023-05-13T18:23:39.350Z,64.11
2023-05-13T18:28:41.441Z,64.79
2023-05-13T18:33:43.030Z,65.59
2023-05-13T18:38:47.779Z,66.29
2023-05-13T18:43:50.400Z,66.17
2023-05-13T18:48:51.916Z,67.70
2023-05-13T18:53:53.411Z,68.45
2023-05-13T18:58:54.923Z,69.65
2023-05-13T19:03:56.856Z,70.22
2023-05-13T19:08:58.446Z,71.11
2023-05-13T19:13:59.999Z,71.51
2023-05-13T19:19:01.650Z,72.45
2023-05-13T19:24:03.456Z,73.17
2023-05-13T19:29:05.059Z,73.63
2023-05-13T19:34:07.684Z,74.51
2023-05-13T19:39:10.301Z,74.84
2023-05-13T19:44:11.815Z,75.87
2023-05-13T19:49:13.394Z,76.67
2023-05-13T19:54:14.914Z,77.32
2023-05-13T19:59:16.468Z,78.23
2023-05-13T20:04:18.013Z,79.00
2023-05-13T20:09:19.518Z,79.13
2023-05-13T20:14:27.810Z,79.56
2023-05-13T20:19:29.423Z,80.39
2023-05-13T20:24:31.051Z,80.90
2023-05-13T20:29:42.173Z,81.48
2023-05-13T20:34:44.092Z,82.13
2023-05-13T20:39:47.909Z,83.55
2023-05-13T20:44:50.628Z,83.84
2023-05-13T20:49:52.141Z,84.00
2023-05-13T20:54:53.676Z,84.33
2023-05-13T20:59:55.497Z,84.72
2023-05-13T21:04:57.170Z,85.29
2023-05-13T21:09:58.704Z,85.88
2023-05-13T21:15:00.215Z,85.92
2023-05-13T21:20:01.831Z,86.51
2023-05-13T21:25:03.543Z,86.65
2023-05-13T21:30:06.060Z,87.36
2023-05-13T21:35:08.057Z,87.91
2023-05-13T21:40:09.964Z,87.91
2023-05-13T21:45:13.025Z,87.93
2023-05-13T21:50:17.034Z,88.21
2023-05-13T21:55:18.709Z,88.88
2023-05-13T22:00:21.737Z,89.31
2023-05-13T22:05:23.903Z,89.42
2023-05-13T22:10:25.753Z,89.46
2023-05-13T22:15:29.845Z,89.91
2023-05-13T22:20:31.450Z,90.34
2023-05-13T22:25:33.269Z,91.06
2023-05-13T22:30:34.967Z,91.50
2023-05-13T22:35:36.690Z,91.29
2023-05-13T22:40:38.314Z,91.51
2023-05-13T22:45:39.956Z,91.75
2023-05-13T22:50:41.623Z,92.30
2023-05-13T22:55:43.152Z,94.00
2023-05-13T23:00:44.680Z,94.38
2023-05-13T23:05:46.229Z,94.51
2023-05-13T23:10:47.810Z,95.08
2023-05-13T23:15:49.522Z,96.41
2023-05-13T23:20:58.188Z,96.82
2023-05-13T23:25:59.744Z,97.47
2023-05-13T23:31:01.333Z,97.36
2023-05-13T23:36:02.864Z,98.01
2023-05-13T23:41:04.401Z,97.81
2023-05-13T23:46:06.011Z,97.84
2023-05-13T23:51:07.633Z,98.03
2023-05-13T23:56:09.179Z,99.23
